sensor_id;sensor_type;location;lat;lon;timestamp;P1;durP1;ratioP1;P2;durP2;ratioP2
68229;SDS011;55048;52.220;5.160;2023-10-13T00:01:01;28.13;;;11.93;;
68229;SDS011;55048;52.220;5.160;2023-10-13T00:03:29;28.60;;;11.83;;
68229;SDS011;55048;52.220;5.160;2023-10-13T00:05:59;35.25;;;13.63;;
68229;SDS011;55048;52.220;5.160;2023-10-13T00:08:28;32.60;;;13.55;;
68229;SDS011;55048;52.220;5.160;2023-10-13T00:10:54;41.42;;;14.82;;
68229;SDS011;55048;52.220;5.160;2023-10-13T00:13:28;33.47;;;14.90;;
68229;SDS011;55048;52.220;5.160;2023-10-13T00:15:55;34.72;;;14.13;;
68229;SDS011;55048;52.220;5.160;2023-10-13T00:18:25;31.33;;;13.65;;
68229;SDS011;55048;52.220;5.160;2023-10-13T00:20:59;31.17;;;13.45;;
68229;SDS011;55048;52.220;5.160;2023-10-13T00:24:00;32.50;;;14.25;;
68229;SDS011;55048;52.220;5.160;2023-10-13T00:26:39;34.78;;;13.80;;
68229;SDS011;55048;52.220;5.160;2023-10-13T00:29:08;40.10;;;13.55;;
68229;SDS011;55048;52.220;5.160;2023-10-13T00:31:35;27.92;;;13.13;;
68229;SDS011;55048;52.220;5.160;2023-10-13T00:34:03;36.08;;;13.45;;
68229;SDS011;55048;52.220;5.160;2023-10-13T00:36:44;33.83;;;13.73;;
68229;SDS011;55048;52.220;5.160;2023-10-13T00:39:28;30.27;;;13.32;;
68229;SDS011;55048;52.220;5.160;2023-10-13T00:41:54;30.52;;;13.25;;
68229;SDS011;55048;52.220;5.160;2023-10-13T00:44:24;30.70;;;11.70;;
68229;SDS011;55048;52.220;5.160;2023-10-13T00:47:09;30.23;;;13.00;;
68229;SDS011;55048;52.220;5.160;2023-10-13T00:49:44;22.35;;;11.45;;
68229;SDS011;55048;52.220;5.160;2023-10-13T00:52:13;37.92;;;13.40;;
68229;SDS011;55048;52.220;5.160;2023-10-13T00:54:40;33.78;;;13.93;;
68229;SDS011;55048;52.220;5.160;2023-10-13T00:57:14;27.67;;;13.32;;
68229;SDS011;55048;52.220;5.160;2023-10-13T00:59:51;32.13;;;13.75;;
68229;SDS011;55048;52.220;5.160;2023-10-13T01:02:19;38.22;;;14.50;;
68229;SDS011;55048;52.220;5.160;2023-10-13T01:05:03;39.03;;;15.65;;
68229;SDS011;55048;52.220;5.160;2023-10-13T01:07:30;37.58;;;16.60;;
68229;SDS011;55048;52.220;5.160;2023-10-13T01:09:55;38.72;;;16.80;;
68229;SDS011;55048;52.220;5.160;2023-10-13T01:12:21;38.60;;;15.88;;
68229;SDS011;55048;52.220;5.160;2023-10-13T01:14:49;33.50;;;15.25;;
68229;SDS011;55048;52.220;5.160;2023-10-13T01:17:15;47.38;;;18.35;;
68229;SDS011;55048;52.220;5.160;2023-10-13T01:19:40;44.88;;;17.88;;
68229;SDS011;55048;52.220;5.160;2023-10-13T01:22:11;49.75;;;17.75;;
68229;SDS011;55048;52.220;5.160;2023-10-13T01:24:36;39.53;;;17.23;;
68229;SDS011;55048;52.220;5.160;2023-10-13T01:27:02;37.75;;;16.23;;
68229;SDS011;55048;52.220;5.160;2023-10-13T01:29:49;36.95;;;16.33;;
68229;SDS011;55048;52.220;5.160;2023-10-13T01:32:19;37.08;;;15.82;;
68229;SDS011;55048;52.220;5.160;2023-10-13T01:34:46;36.13;;;15.43;;
68229;SDS011;55048;52.220;5.160;2023-10-13T01:37:13;38.55;;;15.30;;
68229;SDS011;55048;52.220;5.160;2023-10-13T01:39:41;33.53;;;15.15;;
68229;SDS011;55048;52.220;5.160;2023-10-13T01:42:06;31.90;;;15.82;;
68229;SDS011;55048;52.220;5.160;2023-10-13T01:44:31;39.80;;;15.63;;
68229;SDS011;55048;52.220;5.160;2023-10-13T01:46:57;28.75;;;14.88;;
68229;SDS011;55048;52.220;5.160;2023-10-13T01:49:34;34.97;;;14.40;;
68229;SDS011;55048;52.220;5.160;2023-10-13T01:52:07;32.33;;;14.57;;
68229;SDS011;55048;52.220;5.160;2023-10-13T01:54:36;33.45;;;14.55;;
68229;SDS011;55048;52.220;5.160;2023-10-13T01:57:05;29.20;;;14.45;;
68229;SDS011;55048;52.220;5.160;2023-10-13T01:59:34;34.17;;;13.63;;
68229;SDS011;55048;52.220;5.160;2023-10-13T02:02:09;35.97;;;13.10;;
68229;SDS011;55048;52.220;5.160;2023-10-13T02:04:44;36.00;;;15.07;;
68229;SDS011;55048;52.220;5.160;2023-10-13T02:07:22;27.95;;;13.82;;
68229;SDS011;55048;52.220;5.160;2023-10-13T02:09:51;27.95;;;13.63;;
68229;SDS011;55048;52.220;5.160;2023-10-13T02:12:20;27.88;;;12.88;;
68229;SDS011;55048;52.220;5.160;2023-10-13T02:14:51;28.55;;;12.85;;
68229;SDS011;55048;52.220;5.160;2023-10-13T02:17:16;27.77;;;12.57;;
68229;SDS011;55048;52.220;5.160;2023-10-13T02:19:46;28.50;;;13.77;;
68229;SDS011;55048;52.220;5.160;2023-10-13T02:22:12;27.58;;;11.90;;
68229;SDS011;55048;52.220;5.160;2023-10-13T02:24:53;19.90;;;10.27;;
68229;SDS011;55048;52.220;5.160;2023-10-13T02:27:18;26.25;;;11.65;;
68229;SDS011;55048;52.220;5.160;2023-10-13T02:29:49;25.65;;;12.27;;
68229;SDS011;55048;52.220;5.160;2023-10-13T02:32:15;30.73;;;11.93;;
68229;SDS011;55048;52.220;5.160;2023-10-13T02:34:46;25.85;;;10.90;;
68229;SDS011;55048;52.220;5.160;2023-10-13T02:37:12;28.92;;;11.10;;
68229;SDS011;55048;52.220;5.160;2023-10-13T02:39:42;24.08;;;10.85;;
68229;SDS011;55048;52.220;5.160;2023-10-13T02:42:07;22.63;;;9.32;;
68229;SDS011;55048;52.220;5.160;2023-10-13T02:44:36;18.55;;;9.63;;
68229;SDS011;55048;52.220;5.160;2023-10-13T02:47:04;27.50;;;11.27;;
68229;SDS011;55048;52.220;5.160;2023-10-13T02:49:38;20.65;;;9.65;;
68229;SDS011;55048;52.220;5.160;2023-10-13T02:52:08;24.48;;;9.80;;
68229;SDS011;55048;52.220;5.160;2023-10-13T02:54:35;20.80;;;9.70;;
68229;SDS011;55048;52.220;5.160;2023-10-13T02:57:07;22.38;;;9.63;;
68229;SDS011;55048;52.220;5.160;2023-10-13T02:59:32;28.02;;;10.05;;
68229;SDS011;55048;52.220;5.160;2023-10-13T03:02:11;26.83;;;11.33;;
68229;SDS011;55048;52.220;5.160;2023-10-13T03:04:49;24.35;;;10.23;;
68229;SDS011;55048;52.220;5.160;2023-10-13T03:07:15;26.20;;;10.60;;
68229;SDS011;55048;52.220;5.160;2023-10-13T03:09:47;25.83;;;11.10;;
68229;SDS011;55048;52.220;5.160;2023-10-13T03:12:20;30.15;;;10.90;;
68229;SDS011;55048;52.220;5.160;2023-10-13T03:14:46;22.27;;;10.00;;
68229;SDS011;55048;52.220;5.160;2023-10-13T03:17:20;23.23;;;10.98;;
68229;SDS011;55048;52.220;5.160;2023-10-13T03:19:58;26.30;;;10.82;;
68229;SDS011;55048;52.220;5.160;2023-10-13T03:22:24;23.80;;;11.48;;
68229;SDS011;55048;52.220;5.160;2023-10-13T03:24:57;26.88;;;11.18;;
68229;SDS011;55048;52.220;5.160;2023-10-13T03:27:30;30.77;;;11.70;;
68229;SDS011;55048;52.220;5.160;2023-10-13T03:30:13;33.67;;;11.50;;
68229;SDS011;55048;52.220;5.160;2023-10-13T03:32:40;27.75;;;12.25;;
68229;SDS011;55048;52.220;5.160;2023-10-13T03:35:09;27.55;;;10.30;;
68229;SDS011;55048;52.220;5.160;2023-10-13T03:37:38;25.60;;;11.88;;
68229;SDS011;55048;52.220;5.160;2023-10-13T03:42:53;24.20;;;11.95;;
68229;SDS011;55048;52.220;5.160;2023-10-13T03:45:36;30.65;;;12.35;;
68229;SDS011;55048;52.220;5.160;2023-10-13T03:48:09;25.77;;;11.07;;
68229;SDS011;55048;52.220;5.160;2023-10-13T03:50:52;27.55;;;13.07;;
68229;SDS011;55048;52.220;5.160;2023-10-13T03:53:30;27.17;;;11.65;;
68229;SDS011;55048;52.220;5.160;2023-10-13T03:55:59;22.33;;;10.43;;
68229;SDS011;55048;52.220;5.160;2023-10-13T03:58:40;23.23;;;10.88;;
68229;SDS011;55048;52.220;5.160;2023-10-13T04:01:12;25.83;;;10.95;;
68229;SDS011;55048;52.220;5.160;2023-10-13T04:03:42;22.30;;;10.98;;
68229;SDS011;55048;52.220;5.160;2023-10-13T04:06:28;20.80;;;9.43;;
68229;SDS011;55048;52.220;5.160;2023-10-13T04:14:28;25.17;;;10.43;;
68229;SDS011;55048;52.220;5.160;2023-10-13T04:17:17;19.50;;;9.07;;
68229;SDS011;55048;52.220;5.160;2023-10-13T04:19:51;15.25;;;8.63;;
68229;SDS011;55048;52.220;5.160;2023-10-13T04:22:30;17.58;;;8.95;;
68229;SDS011;55048;52.220;5.160;2023-10-13T04:25:21;15.73;;;7.70;;
68229;SDS011;55048;52.220;5.160;2023-10-13T04:28:06;16.92;;;6.97;;
68229;SDS011;55048;52.220;5.160;2023-10-13T04:30:39;16.67;;;8.32;;
68229;SDS011;55048;52.220;5.160;2023-10-13T04:33:20;15.50;;;8.18;;
68229;SDS011;55048;52.220;5.160;2023-10-13T04:36:07;15.65;;;7.57;;
68229;SDS011;55048;52.220;5.160;2023-10-13T04:38:53;15.80;;;7.90;;
68229;SDS011;55048;52.220;5.160;2023-10-13T04:41:25;18.70;;;7.55;;
68229;SDS011;55048;52.220;5.160;2023-10-13T04:44:11;12.38;;;7.95;;
68229;SDS011;55048;52.220;5.160;2023-10-13T04:46:57;16.35;;;8.05;;
68229;SDS011;55048;52.220;5.160;2023-10-13T04:49:30;16.17;;;8.15;;
68229;SDS011;55048;52.220;5.160;2023-10-13T04:52:08;14.15;;;6.85;;
68229;SDS011;55048;52.220;5.160;2023-10-13T04:54:35;13.57;;;8.10;;
68229;SDS011;55048;52.220;5.160;2023-10-13T04:57:19;12.57;;;7.45;;
68229;SDS011;55048;52.220;5.160;2023-10-13T04:59:49;13.93;;;7.60;;
68229;SDS011;55048;52.220;5.160;2023-10-13T05:02:36;9.95;;;6.43;;
68229;SDS011;55048;52.220;5.160;2023-10-13T05:05:26;12.13;;;6.72;;
68229;SDS011;55048;52.220;5.160;2023-10-13T05:07:57;16.40;;;6.15;;
68229;SDS011;55048;52.220;5.160;2023-10-13T05:10:41;7.45;;;5.10;;
68229;SDS011;55048;52.220;5.160;2023-10-13T05:13:25;7.72;;;4.80;;
68229;SDS011;55048;52.220;5.160;2023-10-13T05:16:09;10.18;;;4.57;;
68229;SDS011;55048;52.220;5.160;2023-10-13T05:18:53;6.53;;;5.15;;
68229;SDS011;55048;52.220;5.160;2023-10-13T05:21:37;7.63;;;4.50;;
68229;SDS011;55048;52.220;5.160;2023-10-13T05:24:20;8.50;;;5.10;;
68229;SDS011;55048;52.220;5.160;2023-10-13T05:27:04;7.82;;;4.43;;
68229;SDS011;55048;52.220;5.160;2023-10-13T05:29:48;12.13;;;5.60;;
68229;SDS011;55048;52.220;5.160;2023-10-13T05:32:32;9.85;;;5.03;;
68229;SDS011;55048;52.220;5.160;2023-10-13T05:35:18;6.80;;;3.97;;
68229;SDS011;55048;52.220;5.160;2023-10-13T05:38:05;11.50;;;5.55;;
68229;SDS011;55048;52.220;5.160;2023-10-13T05:40:57;9.25;;;4.50;;
68229;SDS011;55048;52.220;5.160;2023-10-13T05:43:43;11.43;;;4.18;;
68229;SDS011;55048;52.220;5.160;2023-10-13T05:46:27;14.00;;;3.45;;
68229;SDS011;55048;52.220;5.160;2023-10-13T05:48:53;10.23;;;3.85;;
68229;SDS011;55048;52.220;5.160;2023-10-13T05:51:25;10.18;;;3.88;;
68229;SDS011;55048;52.220;5.160;2023-10-13T05:54:00;17.52;;;3.80;;
68229;SDS011;55048;52.220;5.160;2023-10-13T05:56:40;11.57;;;2.97;;
68229;SDS011;55048;52.220;5.160;2023-10-13T05:59:25;10.93;;;3.13;;
68229;SDS011;55048;52.220;5.160;2023-10-13T06:02:12;17.65;;;3.72;;
68229;SDS011;55048;52.220;5.160;2023-10-13T06:04:58;16.67;;;3.40;;
68229;SDS011;55048;52.220;5.160;2023-10-13T06:07:41;10.52;;;3.25;;
68229;SDS011;55048;52.220;5.160;2023-10-13T06:10:26;13.40;;;3.22;;
68229;SDS011;55048;52.220;5.160;2023-10-13T06:13:09;9.98;;;2.80;;
68229;SDS011;55048;52.220;5.160;2023-10-13T06:15:53;8.77;;;3.28;;
68229;SDS011;55048;52.220;5.160;2023-10-13T06:18:37;13.82;;;3.00;;
68229;SDS011;55048;52.220;5.160;2023-10-13T06:21:21;11.52;;;3.22;;
68229;SDS011;55048;52.220;5.160;2023-10-13T06:24:06;9.95;;;2.88;;
68229;SDS011;55048;52.220;5.160;2023-10-13T06:26:51;14.32;;;3.85;;
68229;SDS011;55048;52.220;5.160;2023-10-13T06:29:35;19.70;;;3.38;;
68229;SDS011;55048;52.220;5.160;2023-10-13T06:32:00;14.45;;;4.03;;
68229;SDS011;55048;52.220;5.160;2023-10-13T06:34:29;16.42;;;4.00;;
68229;SDS011;55048;52.220;5.160;2023-10-13T06:37:16;12.57;;;3.53;;
68229;SDS011;55048;52.220;5.160;2023-10-13T06:39:54;15.15;;;3.88;;
68229;SDS011;55048;52.220;5.160;2023-10-13T06:42:27;17.70;;;3.83;;
68229;SDS011;55048;52.220;5.160;2023-10-13T06:44:53;13.15;;;4.00;;
68229;SDS011;55048;52.220;5.160;2023-10-13T06:47:20;15.05;;;4.22;;
68229;SDS011;55048;52.220;5.160;2023-10-13T06:49:49;11.82;;;3.90;;
68229;SDS011;55048;52.220;5.160;2023-10-13T06:52:20;17.42;;;4.40;;
68229;SDS011;55048;52.220;5.160;2023-10-13T06:54:49;14.82;;;4.82;;
68229;SDS011;55048;52.220;5.160;2023-10-13T06:57:15;11.32;;;4.18;;
68229;SDS011;55048;52.220;5.160;2023-10-13T07:02:11;13.45;;;4.68;;
68229;SDS011;55048;52.220;5.160;2023-10-13T07:04:46;13.48;;;4.95;;
68229;SDS011;55048;52.220;5.160;2023-10-13T07:07:12;18.10;;;4.97;;
68229;SDS011;55048;52.220;5.160;2023-10-13T07:09:40;12.60;;;5.50;;
68229;SDS011;55048;52.220;5.160;2023-10-13T07:12:14;15.20;;;6.25;;
68229;SDS011;55048;52.220;5.160;2023-10-13T07:14:50;13.65;;;7.30;;
68229;SDS011;55048;52.220;5.160;2023-10-13T07:17:25;18.38;;;6.95;;
68229;SDS011;55048;52.220;5.160;2023-10-13T07:19:54;12.82;;;8.52;;
68229;SDS011;55048;52.220;5.160;2023-10-13T07:22:24;18.52;;;8.27;;
68229;SDS011;55048;52.220;5.160;2023-10-13T07:24:52;19.50;;;9.60;;
68229;SDS011;55048;52.220;5.160;2023-10-13T07:27:22;17.90;;;11.18;;
68229;SDS011;55048;52.220;5.160;2023-10-13T07:29:57;19.55;;;10.88;;
68229;SDS011;55048;52.220;5.160;2023-10-13T07:32:39;21.42;;;10.18;;
68229;SDS011;55048;52.220;5.160;2023-10-13T07:35:17;17.30;;;8.73;;
68229;SDS011;55048;52.220;5.160;2023-10-13T07:37:45;15.63;;;9.50;;
68229;SDS011;55048;52.220;5.160;2023-10-13T07:40:14;13.70;;;8.63;;
68229;SDS011;55048;52.220;5.160;2023-10-13T07:42:51;11.93;;;8.25;;
68229;SDS011;55048;52.220;5.160;2023-10-13T07:45:17;16.77;;;8.00;;
68229;SDS011;55048;52.220;5.160;2023-10-13T07:47:47;16.48;;;6.88;;
68229;SDS011;55048;52.220;5.160;2023-10-13T07:50:12;17.77;;;7.07;;
68229;SDS011;55048;52.220;5.160;2023-10-13T07:52:38;16.92;;;6.78;;
68229;SDS011;55048;52.220;5.160;2023-10-13T07:55:23;14.40;;;5.57;;
68229;SDS011;55048;52.220;5.160;2023-10-13T07:57:48;20.25;;;5.85;;
68229;SDS011;55048;52.220;5.160;2023-10-13T08:00:20;21.35;;;6.07;;
68229;SDS011;55048;52.220;5.160;2023-10-13T08:03:05;13.85;;;5.20;;
68229;SDS011;55048;52.220;5.160;2023-10-13T08:05:40;14.32;;;5.47;;
68229;SDS011;55048;52.220;5.160;2023-10-13T08:08:30;17.95;;;5.15;;
68229;SDS011;55048;52.220;5.160;2023-10-13T08:13:54;14.32;;;4.55;;
68229;SDS011;55048;52.220;5.160;2023-10-13T08:16:25;17.83;;;4.45;;
68229;SDS011;55048;52.220;5.160;2023-10-13T08:19:17;16.63;;;4.90;;
68229;SDS011;55048;52.220;5.160;2023-10-13T08:21:56;12.73;;;4.30;;
68229;SDS011;55048;52.220;5.160;2023-10-13T08:24:59;15.15;;;4.70;;
68229;SDS011;55048;52.220;5.160;2023-10-13T08:27:45;13.98;;;4.05;;
68229;SDS011;55048;52.220;5.160;2023-10-13T08:30:14;14.45;;;3.85;;
68229;SDS011;55048;52.220;5.160;2023-10-13T08:32:54;11.52;;;3.88;;
68229;SDS011;55048;52.220;5.160;2023-10-13T08:35:22;17.10;;;4.28;;
68229;SDS011;55048;52.220;5.160;2023-10-13T08:37:59;24.73;;;4.60;;
68229;SDS011;55048;52.220;5.160;2023-10-13T08:40:29;16.55;;;3.63;;
68229;SDS011;55048;52.220;5.160;2023-10-13T08:43:33;14.52;;;3.72;;
68229;SDS011;55048;52.220;5.160;2023-10-13T08:46:15;19.52;;;3.58;;
68229;SDS011;55048;52.220;5.160;2023-10-13T08:48:57;13.90;;;4.32;;
68229;SDS011;55048;52.220;5.160;2023-10-13T08:51:40;15.80;;;3.78;;
68229;SDS011;55048;52.220;5.160;2023-10-13T08:54:13;11.35;;;3.15;;
68229;SDS011;55048;52.220;5.160;2023-10-13T08:56:59;12.80;;;3.17;;
68229;SDS011;55048;52.220;5.160;2023-10-13T08:59:31;16.33;;;4.15;;
68229;SDS011;55048;52.220;5.160;2023-10-13T09:02:20;17.10;;;3.22;;
68229;SDS011;55048;52.220;5.160;2023-10-13T09:04:48;19.77;;;3.10;;
68229;SDS011;55048;52.220;5.160;2023-10-13T09:07:24;17.13;;;3.53;;
68229;SDS011;55048;52.220;5.160;2023-10-13T09:09:50;11.73;;;3.45;;
68229;SDS011;55048;52.220;5.160;2023-10-13T09:12:23;14.85;;;3.30;;
68229;SDS011;55048;52.220;5.160;2023-10-13T09:17:51;18.25;;;3.80;;
68229;SDS011;55048;52.220;5.160;2023-10-13T09:20:18;15.15;;;3.60;;
68229;SDS011;55048;52.220;5.160;2023-10-13T09:23:09;16.90;;;3.67;;
68229;SDS011;55048;52.220;5.160;2023-10-13T09:25:37;19.63;;;2.97;;
68229;SDS011;55048;52.220;5.160;2023-10-13T09:28:18;14.75;;;3.63;;
68229;SDS011;55048;52.220;5.160;2023-10-13T09:30:45;13.40;;;3.63;;
68229;SDS011;55048;52.220;5.160;2023-10-13T09:36:08;12.85;;;3.47;;
68229;SDS011;55048;52.220;5.160;2023-10-13T09:38:33;12.40;;;3.05;;
68229;SDS011;55048;52.220;5.160;2023-10-13T09:40:59;14.30;;;3.33;;
68229;SDS011;55048;52.220;5.160;2023-10-13T09:43:43;18.10;;;3.13;;
68229;SDS011;55048;52.220;5.160;2023-10-13T09:46:12;16.38;;;3.53;;
68229;SDS011;55048;52.220;5.160;2023-10-13T09:48:48;11.30;;;3.20;;
68229;SDS011;55048;52.220;5.160;2023-10-13T09:51:29;20.67;;;4.20;;
68229;SDS011;55048;52.220;5.160;2023-10-13T09:54:03;13.13;;;3.55;;
68229;SDS011;55048;52.220;5.160;2023-10-13T09:56:46;20.27;;;3.95;;
68229;SDS011;55048;52.220;5.160;2023-10-13T09:59:21;17.90;;;3.50;;
68229;SDS011;55048;52.220;5.160;2023-10-13T10:01:50;25.80;;;3.90;;
68229;SDS011;55048;52.220;5.160;2023-10-13T10:04:17;24.98;;;4.22;;
68229;SDS011;55048;52.220;5.160;2023-10-13T10:06:53;18.40;;;3.92;;
68229;SDS011;55048;52.220;5.160;2023-10-13T10:09:25;18.17;;;3.55;;
68229;SDS011;55048;52.220;5.160;2023-10-13T10:17:53;12.13;;;3.35;;
68229;SDS011;55048;52.220;5.160;2023-10-13T10:20:27;18.30;;;3.55;;
68229;SDS011;55048;52.220;5.160;2023-10-13T10:23:04;12.38;;;2.72;;
68229;SDS011;55048;52.220;5.160;2023-10-13T10:25:35;19.58;;;4.30;;
68229;SDS011;55048;52.220;5.160;2023-10-13T10:28:05;15.82;;;3.90;;
68229;SDS011;55048;52.220;5.160;2023-10-13T10:30:32;14.95;;;3.42;;
68229;SDS011;55048;52.220;5.160;2023-10-13T10:32:59;14.30;;;3.50;;
68229;SDS011;55048;52.220;5.160;2023-10-13T10:35:27;19.35;;;3.33;;
68229;SDS011;55048;52.220;5.160;2023-10-13T10:38:06;15.30;;;4.18;;
68229;SDS011;55048;52.220;5.160;2023-10-13T10:43:22;21.65;;;3.65;;
68229;SDS011;55048;52.220;5.160;2023-10-13T10:45:52;12.65;;;3.05;;
68229;SDS011;55048;52.220;5.160;2023-10-13T10:48:24;16.48;;;3.53;;
68229;SDS011;55048;52.220;5.160;2023-10-13T10:50:56;23.92;;;3.72;;
68229;SDS011;55048;52.220;5.160;2023-10-13T10:53:24;15.20;;;3.55;;
68229;SDS011;55048;52.220;5.160;2023-10-13T10:56:08;10.90;;;2.72;;
68229;SDS011;55048;52.220;5.160;2023-10-13T10:58:50;15.50;;;2.78;;
68229;SDS011;55048;52.220;5.160;2023-10-13T11:01:24;15.27;;;3.13;;
68229;SDS011;55048;52.220;5.160;2023-10-13T11:06:34;10.43;;;2.90;;
68229;SDS011;55048;52.220;5.160;2023-10-13T11:09:07;19.75;;;3.53;;
68229;SDS011;55048;52.220;5.160;2023-10-13T11:11:46;11.30;;;3.33;;
68229;SDS011;55048;52.220;5.160;2023-10-13T11:14:23;20.10;;;3.75;;
68229;SDS011;55048;52.220;5.160;2023-10-13T11:16:54;17.08;;;3.30;;
68229;SDS011;55048;52.220;5.160;2023-10-13T11:22:13;15.38;;;3.25;;
68229;SDS011;55048;52.220;5.160;2023-10-13T11:24:57;21.30;;;3.53;;
68229;SDS011;55048;52.220;5.160;2023-10-13T11:27:30;17.75;;;4.25;;
68229;SDS011;55048;52.220;5.160;2023-10-13T11:30:14;16.67;;;3.97;;
68229;SDS011;55048;52.220;5.160;2023-10-13T11:32:59;11.63;;;2.92;;
68229;SDS011;55048;52.220;5.160;2023-10-13T11:35:29;18.48;;;4.13;;
68229;SDS011;55048;52.220;5.160;2023-10-13T11:38:14;13.23;;;3.78;;
68229;SDS011;55048;52.220;5.160;2023-10-13T11:40:41;13.85;;;3.05;;
68229;SDS011;55048;52.220;5.160;2023-10-13T11:43:09;9.23;;;3.42;;
68229;SDS011;55048;52.220;5.160;2023-10-13T11:45:42;20.88;;;3.58;;
68229;SDS011;55048;52.220;5.160;2023-10-13T11:48:31;14.30;;;2.80;;
68229;SDS011;55048;52.220;5.160;2023-10-13T11:51:06;10.57;;;3.20;;
68229;SDS011;55048;52.220;5.160;2023-10-13T11:53:36;19.88;;;3.75;;
68229;SDS011;55048;52.220;5.160;2023-10-13T11:58:34;17.83;;;3.78;;
68229;SDS011;55048;52.220;5.160;2023-10-13T12:00:59;14.57;;;3.33;;
68229;SDS011;55048;52.220;5.160;2023-10-13T12:06:23;18.23;;;3.13;;
68229;SDS011;55048;52.220;5.160;2023-10-13T12:08:58;23.63;;;4.15;;
68229;SDS011;55048;52.220;5.160;2023-10-13T12:11:37;17.48;;;3.85;;
68229;SDS011;55048;52.220;5.160;2023-10-13T12:14:07;16.35;;;3.72;;
68229;SDS011;55048;52.220;5.160;2023-10-13T12:16:46;16.52;;;3.05;;
68229;SDS011;55048;52.220;5.160;2023-10-13T12:19:24;21.38;;;3.42;;
68229;SDS011;55048;52.220;5.160;2023-10-13T12:21:52;13.77;;;3.17;;
68229;SDS011;55048;52.220;5.160;2023-10-13T12:24:27;19.05;;;4.18;;
68229;SDS011;55048;52.220;5.160;2023-10-13T12:27:05;22.98;;;2.90;;
68229;SDS011;55048;52.220;5.160;2023-10-13T12:29:50;15.85;;;3.75;;
68229;SDS011;55048;52.220;5.160;2023-10-13T12:32:17;22.88;;;3.83;;
68229;SDS011;55048;52.220;5.160;2023-10-13T12:34:48;14.30;;;2.60;;
68229;SDS011;55048;52.220;5.160;2023-10-13T12:37:29;15.10;;;3.63;;
68229;SDS011;55048;52.220;5.160;2023-10-13T12:40:08;16.98;;;4.10;;
68229;SDS011;55048;52.220;5.160;2023-10-13T12:42:54;14.57;;;3.65;;
68229;SDS011;55048;52.220;5.160;2023-10-13T12:45:38;21.60;;;4.20;;
68229;SDS011;55048;52.220;5.160;2023-10-13T12:48:23;12.13;;;2.83;;
68229;SDS011;55048;52.220;5.160;2023-10-13T12:51:07;11.63;;;3.20;;
68229;SDS011;55048;52.220;5.160;2023-10-13T12:53:33;17.30;;;4.35;;
68229;SDS011;55048;52.220;5.160;2023-10-13T12:55:58;23.75;;;3.80;;
68229;SDS011;55048;52.220;5.160;2023-10-13T12:58:24;17.17;;;3.30;;
68229;SDS011;55048;52.220;5.160;2023-10-13T13:00:52;18.00;;;3.97;;
68229;SDS011;55048;52.220;5.160;2023-10-13T13:03:26;23.25;;;4.38;;
68229;SDS011;55048;52.220;5.160;2023-10-13T13:05:54;18.00;;;4.00;;
68229;SDS011;55048;52.220;5.160;2023-10-13T13:08:27;16.75;;;3.97;;
68229;SDS011;55048;52.220;5.160;2023-10-13T13:10:52;19.67;;;4.18;;
68229;SDS011;55048;52.220;5.160;2023-10-13T13:13:18;20.10;;;4.82;;
68229;SDS011;55048;52.220;5.160;2023-10-13T13:15:49;20.35;;;3.92;;
68229;SDS011;55048;52.220;5.160;2023-10-13T13:18:15;18.13;;;4.05;;
68229;SDS011;55048;52.220;5.160;2023-10-13T13:20:40;19.83;;;4.15;;
68229;SDS011;55048;52.220;5.160;2023-10-13T13:23:18;21.10;;;4.00;;
68229;SDS011;55048;52.220;5.160;2023-10-13T13:25:44;19.15;;;4.32;;
68229;SDS011;55048;52.220;5.160;2023-10-13T13:28:10;16.42;;;4.13;;
68229;SDS011;55048;52.220;5.160;2023-10-13T13:30:36;21.70;;;4.68;;
68229;SDS011;55048;52.220;5.160;2023-10-13T13:33:03;17.42;;;4.50;;
68229;SDS011;55048;52.220;5.160;2023-10-13T13:35:36;19.02;;;4.28;;
68229;SDS011;55048;52.220;5.160;2023-10-13T13:38:02;17.73;;;4.88;;
68229;SDS011;55048;52.220;5.160;2023-10-13T13:40:46;19.33;;;4.55;;
68229;SDS011;55048;52.220;5.160;2023-10-13T13:43:14;18.67;;;5.05;;
68229;SDS011;55048;52.220;5.160;2023-10-13T13:45:56;24.05;;;4.82;;
68229;SDS011;55048;52.220;5.160;2023-10-13T13:48:27;22.60;;;5.15;;
68229;SDS011;55048;52.220;5.160;2023-10-13T13:50:53;22.05;;;4.90;;
68229;SDS011;55048;52.220;5.160;2023-10-13T13:53:28;16.08;;;4.88;;
68229;SDS011;55048;52.220;5.160;2023-10-13T13:55:59;15.35;;;4.20;;
68229;SDS011;55048;52.220;5.160;2023-10-13T13:58:25;22.83;;;4.43;;
68229;SDS011;55048;52.220;5.160;2023-10-13T14:00:51;26.23;;;4.88;;
68229;SDS011;55048;52.220;5.160;2023-10-13T14:03:16;15.65;;;3.95;;
68229;SDS011;55048;52.220;5.160;2023-10-13T14:06:00;14.15;;;4.15;;
68229;SDS011;55048;52.220;5.160;2023-10-13T14:08:26;14.65;;;4.88;;
68229;SDS011;55048;52.220;5.160;2023-10-13T14:10:53;14.60;;;4.75;;
68229;SDS011;55048;52.220;5.160;2023-10-13T14:13:54;18.65;;;5.47;;
68229;SDS011;55048;52.220;5.160;2023-10-13T14:16:22;8.52;;;3.85;;
68229;SDS011;55048;52.220;5.160;2023-10-13T14:18:51;22.90;;;5.18;;
68229;SDS011;55048;52.220;5.160;2023-10-13T14:21:17;17.77;;;5.55;;
68229;SDS011;55048;52.220;5.160;2023-10-13T14:23:47;20.10;;;4.75;;
68229;SDS011;55048;52.220;5.160;2023-10-13T14:26:14;10.32;;;3.58;;
68229;SDS011;55048;52.220;5.160;2023-10-13T14:28:45;20.63;;;4.82;;
68229;SDS011;55048;52.220;5.160;2023-10-13T14:31:29;15.98;;;4.50;;
68229;SDS011;55048;52.220;5.160;2023-10-13T14:33:55;16.15;;;4.72;;
68229;SDS011;55048;52.220;5.160;2023-10-13T14:36:24;12.55;;;3.58;;
68229;SDS011;55048;52.220;5.160;2023-10-13T14:38:54;13.07;;;4.38;;
68229;SDS011;55048;52.220;5.160;2023-10-13T14:41:20;23.65;;;4.13;;
68229;SDS011;55048;52.220;5.160;2023-10-13T14:43:46;13.63;;;3.90;;
68229;SDS011;55048;52.220;5.160;2023-10-13T14:46:20;11.07;;;3.08;;
68229;SDS011;55048;52.220;5.160;2023-10-13T14:48:51;15.35;;;3.50;;
68229;SDS011;55048;52.220;5.160;2023-10-13T14:51:17;11.18;;;2.75;;
68229;SDS011;55048;52.220;5.160;2023-10-13T14:53:43;8.00;;;2.03;;
68229;SDS011;55048;52.220;5.160;2023-10-13T14:56:09;6.25;;;1.95;;
68229;SDS011;55048;52.220;5.160;2023-10-13T15:01:14;11.05;;;1.92;;
68229;SDS011;55048;52.220;5.160;2023-10-13T15:03:44;13.80;;;2.60;;
68229;SDS011;55048;52.220;5.160;2023-10-13T15:06:17;11.27;;;1.88;;
68229;SDS011;55048;52.220;5.160;2023-10-13T15:08:49;9.60;;;2.65;;
68229;SDS011;55048;52.220;5.160;2023-10-13T15:11:16;15.13;;;2.97;;
68229;SDS011;55048;52.220;5.160;2023-10-13T15:13:43;18.50;;;2.53;;
68229;SDS011;55048;52.220;5.160;2023-10-13T15:16:22;12.98;;;2.42;;
68229;SDS011;55048;52.220;5.160;2023-10-13T15:18:50;8.40;;;2.53;;
68229;SDS011;55048;52.220;5.160;2023-10-13T15:21:24;14.82;;;3.45;;
68229;SDS011;55048;52.220;5.160;2023-10-13T15:24:00;14.13;;;3.13;;
68229;SDS011;55048;52.220;5.160;2023-10-13T15:26:32;13.90;;;4.13;;
68229;SDS011;55048;52.220;5.160;2023-10-13T15:29:03;14.55;;;3.08;;
68229;SDS011;55048;52.220;5.160;2023-10-13T15:31:34;24.65;;;4.40;;
68229;SDS011;55048;52.220;5.160;2023-10-13T15:34:01;18.17;;;3.47;;
68229;SDS011;55048;52.220;5.160;2023-10-13T15:36:40;16.80;;;3.65;;
68229;SDS011;55048;52.220;5.160;2023-10-13T15:39:10;19.50;;;3.40;;
68229;SDS011;55048;52.220;5.160;2023-10-13T15:41:36;19.25;;;4.07;;
68229;SDS011;55048;52.220;5.160;2023-10-13T15:44:03;14.43;;;3.15;;
68229;SDS011;55048;52.220;5.160;2023-10-13T15:46:31;16.05;;;3.88;;
68229;SDS011;55048;52.220;5.160;2023-10-13T15:48:57;19.30;;;3.85;;
68229;SDS011;55048;52.220;5.160;2023-10-13T15:51:24;21.90;;;4.18;;